Grand Princess — ZCBU5 — position and weather

sailwx.info

Track history (hours):
 
Tides and Currents Weather Stations Pressure Air Temp Water Temp Dewpoint Dewpoint Depression Visibility Wind Speed Wind Dir Waves Ship Positions

Grand Princess

Operator: Princess Cruises

Last reported at 2016-Apr-29 01:33 UTC. Time now 2016-Apr-29 01:54 UTC.
Position N 32°41' W 117°14'.

Length 289.5 m; beam 36 m; draft 8.5 m.

Type: Ship. MMSI: 310327000.

Date/timePositionNaut miles runAvg speedWind from/ knotsBaromVisibWave heightAir tempDewpointWater temp
2016-Apr-29 01:33N 32°41' W 117°14'3 3.3
2016-Apr-29 00:31N 32°43' W 117°10'0 0.0
2016-Apr-28 23:33N 32°43' W 117°10'0 0.0
2016-Apr-28 22:30N 32°43' W 117°10'0 0.0
2016-Apr-28 21:33N 32°43' W 117°10'0 0.0
2016-Apr-28 20:32N 32°43' W 117°10'0 0.0
2016-Apr-28 19:29N 32°43' W 117°10'0 0.0
2016-Apr-28 18:31N 32°43' W 117°10'0 0.0
2016-Apr-28 17:31N 32°43' W 117°10'0 0.0
2016-Apr-28 16:33N 32°43' W 117°10'0 0.0
2016-Apr-28 15:33N 32°43' W 117°10'0 0.0
2016-Apr-28 14:33N 32°43' W 117°10'0 0.0
2016-Apr-28 13:33N 32°43' W 117°10'6 5.9
2016-Apr-28 12:33N 32°38' W 117°14'1010.4
2016-Apr-28 11:33N 32°30' W 117°22'1010.0
2016-Apr-28 10:33N 32°24' W 117°31'7 7.4
2016-Apr-28 09:33N 32°26' W 117°40'10 9.8
2016-Apr-28 08:33N 32°34' W 117°46'10 9.7
2016-Apr-28 07:34N 32°42' W 117°51'1010.1
2016-Apr-28 06:33N 32°52' W 117°55'2 4.3
2016-Apr-28 06:00N 32°54' W 117°54'920.0 290 / 331009.110.8 2.514.0 9.117.0
2016-Apr-28 05:33N 33°01' W 117°59'10 9.7
2016-Apr-28 04:33N 33°11' W 118°03'9 9.2
2016-Apr-28 03:33N 33°19' W 118°06'9 9.4
2016-Apr-28 02:33N 33°28' W 118°10'1010.2
2016-Apr-28 01:32N 33°38' W 118°12'7 6.5
2016-Apr-28 00:32N 33°45' W 118°11'0 0.0
2016-Apr-27 23:31N 33°45' W 118°11'0 0.0
2016-Apr-27 22:31N 33°45' W 118°11'0 0.0
2016-Apr-27 21:31N 33°45' W 118°11'0 0.0
2016-Apr-27 20:33N 33°45' W 118°11'0 0.0
2016-Apr-27 19:33N 33°45' W 118°11'0 0.0
2016-Apr-27 18:32N 33°45' W 118°11'0 0.0
2016-Apr-27 17:32N 33°45' W 118°11'0 0.0
2016-Apr-27 16:31N 33°45' W 118°11'0 0.0
2016-Apr-27 15:31N 33°45' W 118°11'0 0.0
2016-Apr-27 14:31N 33°45' W 118°11'1 1.0
2016-Apr-27 13:33N 33°44' W 118°11'9 8.9
2016-Apr-27 12:33N 33°36' W 118°16'1110.5
2016-Apr-27 11:33N 33°40' W 118°28'26 8.2
2016-Apr-27 08:22N 33°43' W 118°59'7 8.3
2016-Apr-27 07:32N 33°46' W 119°07'23 6.9
2016-Apr-27 04:11N 34°04' W 119°24'20 7.6
2016-Apr-27 01:31N 34°17' W 119°43'41 2.1
2016-Apr-26 06:00N 33°36' W 119°48'25310.7 300 / 351013.810.8 3.013.5 8.512.0
2016-Apr-25 06:17N 36°41' W 123°18'516.3
2016-Apr-25 06:00N 36°42' W 123°12'921.8 330 / 401018.910.8 2.513.0 4.213.0
2016-Apr-25 05:34N 36°51' W 123°17'1412.6
2016-Apr-25 04:28N 37°04' W 123°14'3612.0
2016-Apr-25 01:26N 37°38' W 122°57'1213.1
2016-Apr-25 00:33N 37°42' W 122°43'1312.9
2016-Apr-24 23:34N 37°49' W 122°30'4 4.4
2016-Apr-24 22:32N 37°48' W 122°24'0 0.0
2016-Apr-24 21:23N 37°48' W 122°24'0 0.0
2016-Apr-24 20:31N 37°48' W 122°24'0 0.0
2016-Apr-24 19:31N 37°48' W 122°24'0 0.0
2016-Apr-24 18:30N 37°48' W 122°24'0 0.0
2016-Apr-24 17:24N 37°48' W 122°24'0 0.0
2016-Apr-24 16:30N 37°48' W 122°24'0 0.0
2016-Apr-24 15:32N 37°48' W 122°24'0 0.0
2016-Apr-24 14:29N 37°48' W 122°24'0 0.2
2016-Apr-24 13:33N 37°48' W 122°24'6 6.3
2016-Apr-24 12:34N 37°48' W 122°32'1010.3
2016-Apr-24 11:34N 37°40' W 122°40'1110.8
2016-Apr-24 10:33N 37°29' W 122°39'1211.8
2016-Apr-24 09:33N 37°17' W 122°39'1212.2
2016-Apr-24 08:33N 37°06' W 122°33'1212.2
2016-Apr-24 07:33N 36°54' W 122°28'1212.1
2016-Apr-24 06:34N 36°43' W 122°23'1313.3
2016-Apr-24 05:33N 36°31' W 122°17'1414.1
2016-Apr-24 04:33N 36°18' W 122°10'1413.7
2016-Apr-24 03:33N 36°05' W 122°04'1312.7
2016-Apr-24 02:33N 35°53' W 121°57'1313.0
2016-Apr-24 01:33N 35°42' W 121°50'1313.3
2016-Apr-24 00:33N 35°30' W 121°42'1313.4
2016-Apr-23 23:33N 35°18' W 121°34'1413.5
2016-Apr-23 22:30N 35°06' W 121°26'20613.8
2016-Apr-23 07:33N 32°54' W 118°15'1515.5
2016-Apr-23 06:33N 32°45' W 118°00'1515.0
2016-Apr-23 05:33N 32°36' W 117°47'1515.1
2016-Apr-23 04:33N 32°26' W 117°33'14 0.6
2016-Apr-22 02:32N 32°31' W 117°17'10 9.7
2016-Apr-22 01:30N 32°41' W 117°14'3 0.2
2016-Apr-21 13:11N 32°43' W 117°12'6 9.2
2016-Apr-21 12:32N 32°38' W 117°14'1010.5
2016-Apr-21 11:33N 32°30' W 117°22'1110.7
2016-Apr-21 10:32N 32°23' W 117°32'9 9.4
2016-Apr-21 09:33N 32°28' W 117°42'9 9.2
2016-Apr-21 08:33N 32°36' W 117°48'9 9.3
2016-Apr-21 07:33N 32°44' W 117°52'10 9.8
2016-Apr-21 06:33N 32°53' W 117°56'10 9.8
2016-Apr-21 05:32N 33°03' W 117°60'3 5.6
2016-Apr-21 05:00N 33°06' W 118°00'813.4 300 / 111012.710.8 0.516.514.817.0
2016-Apr-21 04:24N 33°13' W 118°04'8 9.6
2016-Apr-21 03:32N 33°21' W 118°07'10 9.8
2016-Apr-21 02:31N 33°30' W 118°11'1010.1
2016-Apr-21 01:32N 33°40' W 118°12'5 4.7
2016-Apr-21 00:33N 33°45' W 118°11'0 0.0
2016-Apr-20 22:24N 33°45' W 118°11'0 0.0
2016-Apr-20 21:26N 33°45' W 118°11'0 0.0
2016-Apr-20 20:28N 33°45' W 118°11'0 0.0
2016-Apr-20 19:25N 33°45' W 118°11'0 0.0
2016-Apr-20 18:30N 33°45' W 118°11'0 0.0
2016-Apr-20 17:33N 33°45' W 118°11'0 0.0
2016-Apr-20 16:32N 33°45' W 118°11'0 0.0
2016-Apr-20 15:32N 33°45' W 118°11'0 0.0
2016-Apr-20 14:32N 33°45' W 118°11'1 1.0
2016-Apr-20 13:33N 33°44' W 118°11'9 8.7
2016-Apr-20 12:34N 33°36' W 118°16'1010.0
2016-Apr-20 11:34N 33°39' W 118°27'9 9.4
2016-Apr-20 10:34N 33°44' W 118°37'7 7.5
2016-Apr-20 09:34N 33°40' W 118°45'8 8.1
2016-Apr-20 08:34N 33°41' W 118°55'10 9.7
2016-Apr-20 07:30N 33°45' W 119°06'11 7.6
2016-Apr-20 06:03N 33°56' W 119°09'4 8.9
2016-Apr-20 05:34N 34°00' W 119°11'10 9.5
2016-Apr-20 04:33N 34°03' W 119°22'20 8.4
2016-Apr-20 02:09N 34°13' W 119°43'610.3
2016-Apr-20 01:33N 34°19' W 119°42'4 0.4
2016-Apr-19 15:25N 34°24' W 119°41'0 0.0
2016-Apr-19 14:27N 34°24' W 119°41'0 0.4
2016-Apr-19 13:28N 34°23' W 119°41'61 8.9
2016-Apr-19 06:33N 34°23' W 120°55'10 9.8
2016-Apr-19 05:31N 34°20' W 121°07'9 9.7
2016-Apr-19 04:33N 34°17' W 121°18'10 9.8
2016-Apr-19 03:33N 34°14' W 121°29'1010.0
2016-Apr-19 02:33N 34°14' W 121°41'10 9.9
2016-Apr-19 01:33N 34°14' W 121°53'  
Track history (hours):
 
Tides and Currents Weather Stations Pressure Air Temp Water Temp Dewpoint Dewpoint Depression Visibility Wind Speed Wind Dir Waves Ship Positions

Grand Princess

Operator: Princess Cruises

Last reported at 2016-Apr-29 01:33 UTC. Time now 2016-Apr-29 01:54 UTC.
Position N 32°41' W 117°14'.

Length 289.5 m; beam 36 m; draft 8.5 m.

Type: Ship. MMSI: 310327000.

Date/timePositionNaut miles runAvg speedWind from/ knotsBaromVisibWave heightAir tempDewpointWater temp
2016-Apr-29 01:33N 32°41' W 117°14'3 3.3
2016-Apr-29 00:31N 32°43' W 117°10'0 0.0
2016-Apr-28 23:33N 32°43' W 117°10'0 0.0
2016-Apr-28 22:30N 32°43' W 117°10'0 0.0
2016-Apr-28 21:33N 32°43' W 117°10'0 0.0
2016-Apr-28 20:32N 32°43' W 117°10'0 0.0
2016-Apr-28 19:29N 32°43' W 117°10'0 0.0
2016-Apr-28 18:31N 32°43' W 117°10'0 0.0
2016-Apr-28 17:31N 32°43' W 117°10'0 0.0
2016-Apr-28 16:33N 32°43' W 117°10'0 0.0
2016-Apr-28 15:33N 32°43' W 117°10'0 0.0
2016-Apr-28 14:33N 32°43' W 117°10'0 0.0
2016-Apr-28 13:33N 32°43' W 117°10'6 5.9
2016-Apr-28 12:33N 32°38' W 117°14'1010.4
2016-Apr-28 11:33N 32°30' W 117°22'1010.0
2016-Apr-28 10:33N 32°24' W 117°31'7 7.4
2016-Apr-28 09:33N 32°26' W 117°40'10 9.8
2016-Apr-28 08:33N 32°34' W 117°46'10 9.7
2016-Apr-28 07:34N 32°42' W 117°51'1010.1
2016-Apr-28 06:33N 32°52' W 117°55'2 4.3
2016-Apr-28 06:00N 32°54' W 117°54'920.0 290 / 331009.110.8 2.514.0 9.117.0
2016-Apr-28 05:33N 33°01' W 117°59'10 9.7
2016-Apr-28 04:33N 33°11' W 118°03'9 9.2
2016-Apr-28 03:33N 33°19' W 118°06'9 9.4
2016-Apr-28 02:33N 33°28' W 118°10'1010.2
2016-Apr-28 01:32N 33°38' W 118°12'7 6.5
2016-Apr-28 00:32N 33°45' W 118°11'0 0.0
2016-Apr-27 23:31N 33°45' W 118°11'0 0.0
2016-Apr-27 22:31N 33°45' W 118°11'0 0.0
2016-Apr-27 21:31N 33°45' W 118°11'0 0.0
2016-Apr-27 20:33N 33°45' W 118°11'0 0.0
2016-Apr-27 19:33N 33°45' W 118°11'0 0.0
2016-Apr-27 18:32N 33°45' W 118°11'0 0.0
2016-Apr-27 17:32N 33°45' W 118°11'0 0.0
2016-Apr-27 16:31N 33°45' W 118°11'0 0.0
2016-Apr-27 15:31N 33°45' W 118°11'0 0.0
2016-Apr-27 14:31N 33°45' W 118°11'1 1.0
2016-Apr-27 13:33N 33°44' W 118°11'9 8.9
2016-Apr-27 12:33N 33°36' W 118°16'1110.5
2016-Apr-27 11:33N 33°40' W 118°28'26 8.2
2016-Apr-27 08:22N 33°43' W 118°59'7 8.3
2016-Apr-27 07:32N 33°46' W 119°07'23 6.9
2016-Apr-27 04:11N 34°04' W 119°24'20 7.6
2016-Apr-27 01:31N 34°17' W 119°43'41 2.1
2016-Apr-26 06:00N 33°36' W 119°48'25310.7 300 / 351013.810.8 3.013.5 8.512.0
2016-Apr-25 06:17N 36°41' W 123°18'516.3
2016-Apr-25 06:00N 36°42' W 123°12'921.8 330 / 401018.910.8 2.513.0 4.213.0
2016-Apr-25 05:34N 36°51' W 123°17'1412.6
2016-Apr-25 04:28N 37°04' W 123°14'3612.0
2016-Apr-25 01:26N 37°38' W 122°57'1213.1
2016-Apr-25 00:33N 37°42' W 122°43'1312.9
2016-Apr-24 23:34N 37°49' W 122°30'4 4.4
2016-Apr-24 22:32N 37°48' W 122°24'0 0.0
2016-Apr-24 21:23N 37°48' W 122°24'0 0.0
2016-Apr-24 20:31N 37°48' W 122°24'0 0.0
2016-Apr-24 19:31N 37°48' W 122°24'0 0.0
2016-Apr-24 18:30N 37°48' W 122°24'0 0.0
2016-Apr-24 17:24N 37°48' W 122°24'0 0.0
2016-Apr-24 16:30N 37°48' W 122°24'0 0.0
2016-Apr-24 15:32N 37°48' W 122°24'0 0.0
2016-Apr-24 14:29N 37°48' W 122°24'0 0.2
2016-Apr-24 13:33N 37°48' W 122°24'6 6.3
2016-Apr-24 12:34N 37°48' W 122°32'1010.3
2016-Apr-24 11:34N 37°40' W 122°40'1110.8
2016-Apr-24 10:33N 37°29' W 122°39'1211.8
2016-Apr-24 09:33N 37°17' W 122°39'1212.2
2016-Apr-24 08:33N 37°06' W 122°33'1212.2
2016-Apr-24 07:33N 36°54' W 122°28'1212.1
2016-Apr-24 06:34N 36°43' W 122°23'1313.3
2016-Apr-24 05:33N 36°31' W 122°17'1414.1
2016-Apr-24 04:33N 36°18' W 122°10'1413.7
2016-Apr-24 03:33N 36°05' W 122°04'1312.7
2016-Apr-24 02:33N 35°53' W 121°57'1313.0
2016-Apr-24 01:33N 35°42' W 121°50'1313.3
2016-Apr-24 00:33N 35°30' W 121°42'1313.4
2016-Apr-23 23:33N 35°18' W 121°34'1413.5
2016-Apr-23 22:30N 35°06' W 121°26'20613.8
2016-Apr-23 07:33N 32°54' W 118°15'1515.5
2016-Apr-23 06:33N 32°45' W 118°00'1515.0
2016-Apr-23 05:33N 32°36' W 117°47'1515.1
2016-Apr-23 04:33N 32°26' W 117°33'14 0.6
2016-Apr-22 02:32N 32°31' W 117°17'10 9.7
2016-Apr-22 01:30N 32°41' W 117°14'3 0.2
2016-Apr-21 13:11N 32°43' W 117°12'6 9.2
2016-Apr-21 12:32N 32°38' W 117°14'1010.5
2016-Apr-21 11:33N 32°30' W 117°22'1110.7
2016-Apr-21 10:32N 32°23' W 117°32'9 9.4
2016-Apr-21 09:33N 32°28' W 117°42'9 9.2
2016-Apr-21 08:33N 32°36' W 117°48'9 9.3
2016-Apr-21 07:33N 32°44' W 117°52'10 9.8
2016-Apr-21 06:33N 32°53' W 117°56'10 9.8
2016-Apr-21 05:32N 33°03' W 117°60'3 5.6
2016-Apr-21 05:00N 33°06' W 118°00'813.4 300 / 111012.710.8 0.516.514.817.0
2016-Apr-21 04:24N 33°13' W 118°04'8 9.6
2016-Apr-21 03:32N 33°21' W 118°07'10 9.8
2016-Apr-21 02:31N 33°30' W 118°11'1010.1
2016-Apr-21 01:32N 33°40' W 118°12'5 4.7
2016-Apr-21 00:33N 33°45' W 118°11'0 0.0
2016-Apr-20 22:24N 33°45' W 118°11'0 0.0
2016-Apr-20 21:26N 33°45' W 118°11'0 0.0
2016-Apr-20 20:28N 33°45' W 118°11'0 0.0
2016-Apr-20 19:25N 33°45' W 118°11'0 0.0
2016-Apr-20 18:30N 33°45' W 118°11'0 0.0
2016-Apr-20 17:33N 33°45' W 118°11'0 0.0
2016-Apr-20 16:32N 33°45' W 118°11'0 0.0
2016-Apr-20 15:32N 33°45' W 118°11'0 0.0
2016-Apr-20 14:32N 33°45' W 118°11'1 1.0
2016-Apr-20 13:33N 33°44' W 118°11'9 8.7
2016-Apr-20 12:34N 33°36' W 118°16'1010.0
2016-Apr-20 11:34N 33°39' W 118°27'9 9.4
2016-Apr-20 10:34N 33°44' W 118°37'7 7.5
2016-Apr-20 09:34N 33°40' W 118°45'8 8.1
2016-Apr-20 08:34N 33°41' W 118°55'10 9.7
2016-Apr-20 07:30N 33°45' W 119°06'11 7.6
2016-Apr-20 06:03N 33°56' W 119°09'4 8.9
2016-Apr-20 05:34N 34°00' W 119°11'10 9.5
2016-Apr-20 04:33N 34°03' W 119°22'20 8.4
2016-Apr-20 02:09N 34°13' W 119°43'610.3
2016-Apr-20 01:33N 34°19' W 119°42'4 0.4
2016-Apr-19 15:25N 34°24' W 119°41'0 0.0
2016-Apr-19 14:27N 34°24' W 119°41'0 0.4
2016-Apr-19 13:28N 34°23' W 119°41'61 8.9
2016-Apr-19 06:33N 34°23' W 120°55'10 9.8
2016-Apr-19 05:31N 34°20' W 121°07'9 9.7
2016-Apr-19 04:33N 34°17' W 121°18'10 9.8
2016-Apr-19 03:33N 34°14' W 121°29'1010.0
2016-Apr-19 02:33N 34°14' W 121°41'10 9.9
2016-Apr-19 01:33N 34°14' W 121°53'  

Dump ship's entire track history